Etusivu
METAR-TAF:

METAR-TAF

Lentoasemat :

Makkovik, Newfoundland ja Labrador, Kanada

Leveyspiiri: 55-05N, Pituuspiiri: 059-11W, korkeus merenpinnasta: 71 m

Tämänhetkinen sää

Tämä raportti tehtiin 7 tuntia ja 49 minuuttia sitten, kello 20.00 UTC
Tuuli 13 kn lounaasta
Lämpötila 6°C
Kosteus 70%
Ilmanpaine 1005 hPa
Näkyvyys: 24.1 km
Muutamia pilviä 2500 ft:n korkeudessa
Hajanaisia pilviä 22000 ft:n korkeudessa

METAR: CYFT 162000Z 23013KT 15SM FEW025 SCT220 06/01 A2967 RMK CU1CI3 LAST STFD OBS/NEXT 170900Z SLP053

Aika: 00:49 (03:49 UTC)


TAF: puuttuu

Säähavainnot ja -ennusteet yli 4000 lentoasemalta (METAR- ja TAF-raportit).

Käytössä olevat sääasemat on merkitty karttaan keltaisilla ja punaisilla pisteillä.

Aseta hiiri pisteen päälle nähdäksesi sääaseman nimen.

Klikkaa sitten nähdäksesi säähavainnot ja -ennusteet.

Kartan vaihtaminen: klikkaa mustalla rastilla varustettuja vihreitä pisteitä, niin voit zoomata sisään; viivalla varustettua vihreää pistettä, niin voit zoomata ulos tai vihreitä nuolia, niin pääset viereisille kartoille.


METAR-TAF: